Bougouni Airport


Codes: GABG/
Name: Bougouni Airport
City: Bougouni
Country: Mali
Elevation: 1139 ft.

Photos at Bougouni Airport


   Photos courtesy of SpottingLog. You can add your own sightings and photos by signing up for a free trial today.



No photos found.

Weather at Bougouni Airport


Time (UTC)DescriptionTempratureWindCloud coverageVisibilityPressureHumidity
18-Apr-2024 00:00Broken Clouds31°C4 mph, NE61%10000m1009hPa13%
18-Apr-2024 03:00Broken Clouds30°C4 mph, NE72%10000m1009hPa12%
18-Apr-2024 06:00Broken Clouds28°C2 mph, E74%10000m1009hPa14%
18-Apr-2024 09:00Broken Clouds33°C4 mph, E59%10000m1010hPa9%
18-Apr-2024 12:00Broken Clouds40°C7 mph, E76%10000m1008hPa6%
18-Apr-2024 15:00Overcast Clouds42°C7 mph, NE91%10000m1005hPa6%
18-Apr-2024 18:00Broken Clouds40°C4 mph, NE82%10000m1005hPa8%
18-Apr-2024 21:00Scattered Clouds34°C4 mph, NE25%10000m1008hPa10%
19-Apr-2024 00:00Few Clouds32°C4 mph, NE16%10000m1008hPa11%
19-Apr-2024 03:00Scattered Clouds29°C2 mph, SE29%10000m1007hPa13%
19-Apr-2024 06:00Scattered Clouds27°C4 mph, SE34%10000m1009hPa15%
19-Apr-2024 09:00Overcast Clouds35°C4 mph, E87%10000m1010hPa9%
19-Apr-2024 12:00Broken Clouds41°C9 mph, E63%10000m1008hPa6%
19-Apr-2024 15:00Broken Clouds43°C7 mph, E55%10000m1005hPa8%
19-Apr-2024 18:00Broken Clouds39°C2 mph, E77%10000m1004hPa12%
19-Apr-2024 21:00Broken Clouds34°C2 mph, SE75%10000m1007hPa16%
20-Apr-2024 00:00Broken Clouds33°C0 mph, S80%10000m1007hPa18%
20-Apr-2024 03:00Overcast Clouds30°C4 mph, SW87%10000m1006hPa23%
20-Apr-2024 06:00Overcast Clouds29°C7 mph, SW85%10000m1007hPa30%
20-Apr-2024 09:00Broken Clouds34°C9 mph, SW73%10000m1009hPa40%
20-Apr-2024 12:00Overcast Clouds41°C4 mph, W85%10000m1007hPa18%
20-Apr-2024 15:00Broken Clouds43°C2 mph, W74%10000m1004hPa13%
20-Apr-2024 18:00Scattered Clouds40°C2 mph, N45%10000m1002hPa15%
20-Apr-2024 21:00Scattered Clouds36°C2 mph, NW38%10000m1005hPa16%
21-Apr-2024 00:00Broken Clouds33°C13 mph, S67%10000m1006hPa41%
21-Apr-2024 03:00Overcast Clouds29°C9 mph, S100%10000m1007hPa57%
21-Apr-2024 06:00Overcast Clouds28°C9 mph, SW100%10000m1007hPa57%
21-Apr-2024 09:00Overcast Clouds32°C11 mph, SW98%10000m1008hPa46%
21-Apr-2024 12:00Overcast Clouds39°C9 mph, W99%10000m1007hPa21%
21-Apr-2024 15:00Overcast Clouds41°C7 mph, SW100%10000m1003hPa17%
21-Apr-2024 18:00Broken Clouds39°C4 mph, SW80%10000m1002hPa18%
21-Apr-2024 21:00Few Clouds35°C4 mph, S24%10000m1005hPa23%
22-Apr-2024 00:00Broken Clouds32°C13 mph, S56%10000m1007hPa44%
22-Apr-2024 03:00Overcast Clouds28°C9 mph, S98%10000m1006hPa60%
22-Apr-2024 06:00Broken Clouds28°C9 mph, SW83%10000m1007hPa60%
22-Apr-2024 09:00Overcast Clouds32°C9 mph, W96%10000m1009hPa40%
22-Apr-2024 12:00Overcast Clouds39°C7 mph, NW96%10000m1007hPa18%
22-Apr-2024 15:00Broken Clouds41°C4 mph, NW72%10000m1004hPa14%
22-Apr-2024 18:00Broken Clouds38°C0 mph, E69%10000m1004hPa17%
22-Apr-2024 21:00Overcast Clouds33°C7 mph, SW87%10000m1006hPa32%